createdAt,value
2023-04-22T00:00:17.058Z,20.27
2023-04-22T00:02:45.918Z,20.19
2023-04-22T00:05:17.072Z,20.15
2023-04-22T00:07:47.847Z,20.04
2023-04-22T00:10:17.516Z,19.89
2023-04-22T00:12:45.812Z,19.79
2023-04-22T00:15:14.208Z,19.54
2023-04-22T00:17:42.920Z,19.37
2023-04-22T00:20:12.849Z,19.26
2023-04-22T00:22:41.174Z,19.12
2023-04-22T00:25:10.313Z,19.31
2023-04-22T00:27:39.993Z,19.32
2023-04-22T00:30:09.649Z,19.31
2023-04-22T00:32:38.516Z,19.25
2023-04-22T00:35:07.691Z,19.17
2023-04-22T00:37:36.112Z,19.15
2023-04-22T00:40:04.748Z,19.10
2023-04-22T00:42:33.648Z,19.06
2023-04-22T00:45:03.795Z,19.07
2023-04-22T00:47:33.413Z,19.02
2023-04-22T00:50:02.122Z,19.01
2023-04-22T00:52:30.513Z,19.00
2023-04-22T00:54:58.820Z,19.01
2023-04-22T00:57:28.280Z,18.98
2023-04-22T00:59:56.912Z,19.00
2023-04-22T01:02:26.758Z,18.96
2023-04-22T01:04:55.318Z,18.98
2023-04-22T01:07:24.387Z,19.01
2023-04-22T01:09:52.813Z,19.03
2023-04-22T01:12:21.118Z,19.00
2023-04-22T01:14:49.662Z,19.05
2023-04-22T01:17:19.531Z,19.02
2023-04-22T01:19:49.502Z,19.03
2023-04-22T01:22:18.351Z,18.99
2023-04-22T01:24:48.113Z,18.94
2023-04-22T01:27:16.468Z,18.94
2023-04-22T01:29:45.270Z,18.91
2023-04-22T01:32:13.758Z,18.89
2023-04-22T01:34:42.066Z,18.92
2023-04-22T01:37:10.418Z,18.93
2023-04-22T01:39:39.416Z,18.91
2023-04-22T01:42:09.922Z,18.83
2023-04-22T01:44:38.232Z,18.64
2023-04-22T01:47:06.593Z,18.59
2023-04-22T01:49:36.147Z,18.58
2023-04-22T01:52:04.463Z,18.77
2023-04-22T01:54:33.712Z,18.74
2023-04-22T01:57:02.168Z,18.74
2023-04-22T01:59:31.912Z,18.72
2023-04-22T02:02:00.640Z,18.73
2023-04-22T02:04:29.160Z,18.71
2023-04-22T02:06:57.608Z,18.71
2023-04-22T02:09:25.946Z,18.78
2023-04-22T02:11:54.312Z,18.77
2023-04-22T02:14:22.954Z,18.56
2023-04-22T02:16:53.002Z,18.56
2023-04-22T02:19:21.318Z,18.57
2023-04-22T02:21:49.597Z,18.54
2023-04-22T02:24:17.939Z,18.51
2023-04-22T02:26:46.307Z,18.48
2023-04-22T02:29:14.834Z,18.41
2023-04-22T02:31:43.269Z,18.38
2023-04-22T02:34:13.017Z,18.33
2023-04-22T02:36:41.311Z,18.28
2023-04-22T02:39:09.653Z,18.34
2023-04-22T02:41:37.966Z,18.48
2023-04-22T02:44:07.993Z,18.34
2023-04-22T02:46:36.382Z,18.23
2023-04-22T02:49:04.700Z,18.25
2023-04-22T02:51:34.726Z,18.37
2023-04-22T02:54:02.979Z,18.40
2023-04-22T02:56:31.642Z,18.37
2023-04-22T02:58:59.952Z,18.38
2023-04-22T03:01:28.464Z,18.26
2023-04-22T03:04:00.859Z,18.26
2023-04-22T03:06:29.605Z,18.25
2023-04-22T03:08:59.317Z,18.23
2023-04-22T03:11:27.636Z,18.15
2023-04-22T03:13:55.911Z,18.15
2023-04-22T03:16:24.885Z,18.08
2023-04-22T03:18:56.047Z,17.99
2023-04-22T03:21:24.431Z,17.98
2023-04-22T03:23:53.221Z,17.92
2023-04-22T03:26:24.044Z,17.95
2023-04-22T03:28:52.431Z,17.93
2023-04-22T03:31:20.785Z,17.88
2023-04-22T03:33:49.722Z,17.84
2023-04-22T03:36:27.416Z,17.81
2023-04-22T03:38:56.359Z,17.70
2023-04-22T03:41:28.443Z,17.55
2023-04-22T03:43:57.206Z,17.44
2023-04-22T03:46:26.920Z,17.33
2023-04-22T03:49:02.802Z,17.17
2023-04-22T03:51:35.253Z,17.04
2023-04-22T03:54:08.547Z,16.98
2023-04-22T03:56:42.836Z,16.88
2023-04-22T03:59:11.085Z,16.78
2023-04-22T04:01:39.604Z,16.64
2023-04-22T04:04:09.864Z,16.57
2023-04-22T04:06:45.067Z,16.49
2023-04-22T04:09:13.919Z,16.42
2023-04-22T04:11:43.807Z,16.32
2023-04-22T04:14:12.458Z,16.27
2023-04-22T04:16:47.157Z,16.19
2023-04-22T04:19:22.640Z,16.14
2023-04-22T04:21:51.445Z,16.08
2023-04-22T04:24:20.210Z,16.04
2023-04-22T04:26:52.306Z,15.96
2023-04-22T04:29:25.107Z,15.91
2023-04-22T04:32:03.335Z,15.89
2023-04-22T04:34:32.405Z,15.86
2023-04-22T04:37:00.927Z,15.85
2023-04-22T04:39:37.907Z,15.82
2023-04-22T04:42:07.653Z,15.83
2023-04-22T04:44:44.104Z,15.87
2023-04-22T04:47:13.092Z,15.88
2023-04-22T04:49:41.860Z,15.96
2023-04-22T04:52:11.834Z,15.98
2023-04-22T04:54:40.084Z,16.04
2023-04-22T04:57:10.172Z,16.06
2023-04-22T04:59:39.888Z,16.11
2023-04-22T05:02:08.485Z,16.20
2023-04-22T05:04:37.051Z,16.28
2023-04-22T05:07:05.619Z,16.31
2023-04-22T05:09:37.733Z,16.39
2023-04-22T05:12:06.624Z,16.49
2023-04-22T05:14:36.729Z,16.58
2023-04-22T05:17:04.988Z,16.67
2023-04-22T05:19:33.089Z,16.77
2023-04-22T05:22:01.310Z,16.90
2023-04-22T05:24:30.142Z,17.03
2023-04-22T05:26:59.868Z,16.96
2023-04-22T05:29:28.613Z,17.02
2023-04-22T05:31:58.359Z,17.10
2023-04-22T05:34:26.437Z,17.20
2023-04-22T05:36:55.914Z,17.31
2023-04-22T05:39:24.058Z,17.30
2023-04-22T05:41:54.705Z,17.19
2023-04-22T05:44:23.070Z,17.18
2023-04-22T05:46:51.068Z,17.20
2023-04-22T05:49:22.359Z,17.20
2023-04-22T05:52:08.951Z,17.25
2023-04-22T05:54:51.647Z,17.28
2023-04-22T05:57:19.707Z,17.28
2023-04-22T05:59:47.776Z,17.30
2023-04-22T06:02:16.203Z,17.24
2023-04-22T06:04:46.051Z,17.32
2023-04-22T06:07:14.887Z,17.35
2023-04-22T06:09:43.213Z,17.43
2023-04-22T06:12:12.036Z,17.45
2023-04-22T06:14:40.765Z,17.59
2023-04-22T06:17:09.690Z,17.67
2023-04-22T06:19:38.422Z,17.82
2023-04-22T06:22:08.188Z,17.75
2023-04-22T06:24:36.287Z,17.81
2023-04-22T06:27:04.458Z,17.78
2023-04-22T06:29:32.518Z,17.99
2023-04-22T06:32:00.781Z,17.99
2023-04-22T06:34:29.186Z,18.18
2023-04-22T06:36:57.251Z,18.38
2023-04-22T06:39:26.768Z,18.41
2023-04-22T06:42:11.248Z,18.33
2023-04-22T06:44:59.286Z,18.48
2023-04-22T06:47:39.857Z,18.65
2023-04-22T06:50:14.745Z,18.83
2023-04-22T06:52:55.460Z,18.89
2023-04-22T06:55:26.531Z,19.02
2023-04-22T06:57:54.612Z,19.08
2023-04-22T07:00:22.742Z,19.10
2023-04-22T07:02:50.769Z,19.14
2023-04-22T07:05:19.226Z,19.37
2023-04-22T07:07:47.941Z,19.56
2023-04-22T07:10:20.816Z,19.63
2023-04-22T07:13:08.830Z,19.79
2023-04-22T07:15:36.885Z,19.94
2023-04-22T07:18:05.193Z,20.03
2023-04-22T07:20:33.215Z,19.99
2023-04-22T07:23:01.492Z,20.01
2023-04-22T07:25:29.686Z,19.92
2023-04-22T07:27:58.025Z,20.02
2023-04-22T07:30:27.686Z,20.15
2023-04-22T07:32:55.769Z,20.18
2023-04-22T07:35:23.837Z,20.27
2023-04-22T07:37:52.214Z,20.39
2023-04-22T07:40:20.448Z,20.45
2023-04-22T07:42:48.519Z,20.63
2023-04-22T07:45:16.542Z,20.64
2023-04-22T07:47:47.105Z,20.65
2023-04-22T07:50:15.224Z,20.70
2023-04-22T07:52:43.244Z,20.88
2023-04-22T07:55:11.472Z,21.00
2023-04-22T07:57:39.980Z,21.14
2023-04-22T08:00:09.241Z,21.32
2023-04-22T08:02:40.201Z,21.49
2023-04-22T08:05:10.010Z,21.63
2023-04-22T08:07:38.083Z,21.85
2023-04-22T08:10:07.663Z,22.03
2023-04-22T08:12:35.779Z,22.25
2023-04-22T08:15:04.031Z,22.42
2023-04-22T08:17:32.039Z,22.57
2023-04-22T08:20:00.221Z,22.81
2023-04-22T08:22:29.695Z,22.88
2023-04-22T08:24:57.705Z,23.12
2023-04-22T08:27:25.818Z,23.45
2023-04-22T08:29:53.794Z,23.58
2023-04-22T08:32:23.394Z,23.77
2023-04-22T08:34:52.042Z,23.72
2023-04-22T08:37:22.143Z,23.71
2023-04-22T08:39:52.140Z,23.54
2023-04-22T08:42:22.882Z,23.73
2023-04-22T08:44:51.121Z,23.76
2023-04-22T08:47:21.379Z,23.79
2023-04-22T08:49:52.069Z,23.75
2023-04-22T08:52:20.088Z,23.85
2023-04-22T08:54:48.123Z,24.12
2023-04-22T08:57:18.613Z,24.45
2023-04-22T08:59:47.472Z,24.82
2023-04-22T09:02:21.890Z,25.05
2023-04-22T09:04:52.392Z,25.37
2023-04-22T09:07:25.050Z,25.47
2023-04-22T09:09:54.085Z,25.64
2023-04-22T09:12:23.801Z,25.54
2023-04-22T09:14:52.655Z,25.56
2023-04-22T09:17:31.824Z,25.68
2023-04-22T09:20:00.333Z,25.86
2023-04-22T09:22:29.111Z,26.18
2023-04-22T09:24:57.126Z,26.43
2023-04-22T09:27:26.893Z,26.56
2023-04-22T09:29:54.921Z,26.87
2023-04-22T09:32:26.176Z,27.10
2023-04-22T09:34:55.551Z,27.05
2023-04-22T09:37:33.239Z,27.23
2023-04-22T09:40:08.837Z,27.07
2023-04-22T09:42:49.841Z,26.51
2023-04-22T09:45:27.250Z,26.22
2023-04-22T09:47:56.281Z,26.51
2023-04-22T09:50:26.644Z,26.76
2023-04-22T09:53:00.634Z,26.87
2023-04-22T09:55:31.011Z,27.20
2023-04-22T09:58:07.462Z,27.44
2023-04-22T10:00:37.946Z,27.66
2023-04-22T10:03:08.943Z,27.69
2023-04-22T10:05:38.662Z,27.95
2023-04-22T10:08:07.305Z,28.11
2023-04-22T10:10:36.253Z,28.24
2023-04-22T10:13:07.235Z,28.50
2023-04-22T10:15:37.600Z,28.85
2023-04-22T10:18:09.457Z,28.89
2023-04-22T10:20:38.932Z,28.83
2023-04-22T10:23:12.967Z,28.97
2023-04-22T10:25:41.676Z,28.95
2023-04-22T10:28:12.722Z,28.67
2023-04-22T10:30:41.264Z,28.54
2023-04-22T10:33:39.229Z,28.59
2023-04-22T10:36:10.421Z,28.40
2023-04-22T10:38:40.106Z,28.15
2023-04-22T10:41:08.605Z,28.30
2023-04-22T10:43:45.768Z,28.64
2023-04-22T10:46:50.255Z,28.60
2023-04-22T10:49:21.686Z,28.68
2023-04-22T10:51:51.291Z,28.84
2023-04-22T10:54:56.567Z,28.97
2023-04-22T10:57:31.176Z,29.16
2023-04-22T11:00:01.261Z,29.37
2023-04-22T11:02:29.492Z,29.28
2023-04-22T11:05:24.602Z,29.12
2023-04-22T11:07:55.873Z,29.19
2023-04-22T11:10:43.768Z,29.31
2023-04-22T11:13:14.477Z,29.73
2023-04-22T11:15:45.643Z,29.51
2023-04-22T11:18:20.678Z,28.97
2023-04-22T11:20:49.914Z,29.07
2023-04-22T11:23:23.658Z,29.23
2023-04-22T11:25:56.320Z,29.32
2023-04-22T11:28:24.776Z,29.66
2023-04-22T11:30:54.604Z,29.51
2023-04-22T11:33:22.705Z,29.70
2023-04-22T11:35:51.908Z,29.75
2023-04-22T11:38:19.976Z,29.78
2023-04-22T11:40:48.528Z,29.89
2023-04-22T11:43:18.720Z,29.49
2023-04-22T11:45:46.993Z,29.73
2023-04-22T11:48:16.797Z,29.89
2023-04-22T11:50:45.582Z,29.94
2023-04-22T11:53:18.179Z,29.79
2023-04-22T11:55:47.954Z,29.57
2023-04-22T11:58:18.478Z,29.30
2023-04-22T12:00:48.710Z,29.50
2023-04-22T12:03:19.812Z,29.94
2023-04-22T12:05:49.174Z,30.05
2023-04-22T12:08:18.759Z,29.93
2023-04-22T12:10:48.563Z,29.85
2023-04-22T12:13:21.029Z,30.16
2023-04-22T12:15:49.792Z,30.24
2023-04-22T12:18:29.756Z,30.04
2023-04-22T12:21:01.888Z,30.09
2023-04-22T12:23:29.987Z,30.32
2023-04-22T12:25:58.385Z,30.38
2023-04-22T12:28:26.415Z,30.48
2023-04-22T12:30:54.535Z,30.59
2023-04-22T12:33:24.065Z,30.52
2023-04-22T12:35:52.912Z,30.82
2023-04-22T12:38:21.069Z,31.10
2023-04-22T12:40:49.114Z,30.97
2023-04-22T12:43:17.119Z,30.97
2023-04-22T12:45:45.485Z,31.12
2023-04-22T12:48:13.541Z,31.25
2023-04-22T12:50:43.259Z,31.22
2023-04-22T12:53:11.448Z,31.53
2023-04-22T12:55:39.528Z,31.78
2023-04-22T12:58:07.579Z,31.86
2023-04-22T13:00:36.087Z,31.41
2023-04-22T13:03:04.675Z,30.65
2023-04-22T13:05:32.937Z,30.20
2023-04-22T13:08:07.269Z,30.24
2023-04-22T13:10:36.389Z,30.13
2023-04-22T13:13:17.488Z,30.06
2023-04-22T13:15:47.219Z,30.11
2023-04-22T13:18:17.044Z,29.88
2023-04-22T13:20:45.190Z,29.80
2023-04-22T13:23:15.547Z,29.72
2023-04-22T13:25:43.614Z,29.97
2023-04-22T13:28:12.401Z,30.35
2023-04-22T13:30:40.679Z,30.97
2023-04-22T13:33:08.816Z,31.48
2023-04-22T13:35:37.246Z,31.36
2023-04-22T13:38:05.265Z,31.10
2023-04-22T13:40:34.683Z,31.38
2023-04-22T13:43:02.779Z,31.59
2023-04-22T13:45:31.076Z,31.26
2023-04-22T13:47:59.168Z,30.80
2023-04-22T13:50:27.393Z,30.54
2023-04-22T13:52:55.525Z,30.15
2023-04-22T13:55:23.634Z,29.77
2023-04-22T13:57:53.459Z,29.21
2023-04-22T14:00:21.717Z,29.04
2023-04-22T14:02:50.153Z,29.12
2023-04-22T14:05:18.405Z,29.47
2023-04-22T14:07:46.465Z,29.52
2023-04-22T14:10:14.551Z,30.16
2023-04-22T14:12:42.788Z,30.51
2023-04-22T14:15:12.354Z,30.45
2023-04-22T14:17:40.597Z,30.12
2023-04-22T14:20:10.830Z,29.94
2023-04-22T14:22:38.958Z,30.22
2023-04-22T14:25:08.139Z,30.61
2023-04-22T14:27:36.222Z,30.37
2023-04-22T14:30:06.218Z,30.03
2023-04-22T14:32:36.147Z,29.90
2023-04-22T14:35:04.432Z,29.91
2023-04-22T14:37:32.705Z,30.21
2023-04-22T14:40:01.018Z,30.52
2023-04-22T14:42:29.610Z,30.89
2023-04-22T14:44:58.231Z,30.61
2023-04-22T14:47:26.597Z,30.19
2023-04-22T14:49:56.196Z,29.81
2023-04-22T14:52:24.348Z,29.54
2023-04-22T14:54:52.696Z,29.36
2023-04-22T14:57:20.701Z,29.24
2023-04-22T14:59:48.823Z,29.07
2023-04-22T15:02:17.003Z,28.87
2023-04-22T15:04:45.636Z,28.83
2023-04-22T15:07:15.222Z,28.69
2023-04-22T15:09:43.784Z,28.59
2023-04-22T15:12:12.066Z,28.49
2023-04-22T15:14:40.420Z,28.39
2023-04-22T15:17:08.627Z,28.31
2023-04-22T15:19:36.847Z,28.13
2023-04-22T15:22:05.010Z,27.89
2023-04-22T15:24:34.551Z,27.32
2023-04-22T15:27:03.347Z,26.15
2023-04-22T15:29:32.317Z,25.48
2023-04-22T15:32:02.241Z,25.31
2023-04-22T15:34:30.637Z,25.08
2023-04-22T15:36:58.693Z,25.19
2023-04-22T15:39:26.765Z,25.23
2023-04-22T15:41:56.767Z,25.28
2023-04-22T15:44:24.909Z,25.09
2023-04-22T15:46:53.456Z,25.05
2023-04-22T15:49:21.695Z,24.90
2023-04-22T15:51:49.710Z,24.89
2023-04-22T15:54:17.762Z,24.89
2023-04-22T15:56:45.803Z,24.91
2023-04-22T15:59:15.404Z,24.90
2023-04-22T16:01:45.771Z,24.91
2023-04-22T16:04:14.734Z,24.98
2023-04-22T16:06:43.167Z,24.91
2023-04-22T16:09:11.805Z,24.84
2023-04-22T16:11:41.024Z,24.87
2023-04-22T16:14:12.669Z,24.83
2023-04-22T16:16:45.510Z,24.86
2023-04-22T16:19:16.983Z,24.80
2023-04-22T16:21:50.226Z,24.82
2023-04-22T16:24:18.312Z,24.86
2023-04-22T16:26:46.651Z,24.90
2023-04-22T16:29:15.345Z,24.92
2023-04-22T16:31:44.793Z,24.89
2023-04-22T16:34:12.887Z,24.80
2023-04-22T16:36:42.569Z,24.58
2023-04-22T16:39:11.753Z,24.28
2023-04-22T16:41:39.863Z,23.70
2023-04-22T16:44:07.938Z,22.91
2023-04-22T16:46:36.194Z,22.42
2023-04-22T16:49:11.832Z,21.79
2023-04-22T16:51:52.941Z,21.51
2023-04-22T16:54:51.579Z,21.24
2023-04-22T16:57:25.180Z,21.21
2023-04-22T16:59:53.446Z,21.20
2023-04-22T17:02:30.085Z,21.21
2023-04-22T17:06:04.585Z,21.11
2023-04-22T17:08:50.162Z,21.16
2023-04-22T17:11:59.554Z,21.20
2023-04-22T17:16:01.903Z,21.20
2023-04-22T17:23:14.740Z,21.03
2023-04-22T17:26:05.274Z,20.96
2023-04-22T17:29:44.807Z,20.89
2023-04-22T17:32:35.326Z,20.88
2023-04-22T17:35:12.841Z,20.91
2023-04-22T17:37:41.137Z,20.95
2023-04-22T17:40:10.054Z,20.89
2023-04-22T17:42:45.800Z,20.91
2023-04-22T17:45:14.759Z,20.95
2023-04-22T17:47:43.164Z,20.99
2023-04-22T17:50:11.677Z,21.05
2023-04-22T17:52:40.034Z,21.02
2023-04-22T17:55:09.335Z,21.04
2023-04-22T17:57:37.664Z,21.04
2023-04-22T18:00:10.140Z,21.04
2023-04-22T18:02:40.298Z,21.05
2023-04-22T18:05:09.079Z,21.06
2023-04-22T18:07:37.135Z,21.08
2023-04-22T18:10:05.755Z,21.04
2023-04-22T18:12:33.892Z,20.94
2023-04-22T18:15:02.092Z,20.86
2023-04-22T18:17:31.679Z,20.87
2023-04-22T18:20:13.723Z,20.89
2023-04-22T18:22:45.160Z,20.88
2023-04-22T18:25:13.251Z,20.87
2023-04-22T18:27:41.326Z,20.88
2023-04-22T18:30:10.187Z,20.92
2023-04-22T18:32:39.855Z,20.84
2023-04-22T18:35:09.401Z,20.85
2023-04-22T18:37:37.479Z,20.83
2023-04-22T18:40:07.310Z,20.78
2023-04-22T18:42:35.487Z,20.87
2023-04-22T18:45:04.870Z,20.84
2023-04-22T18:47:33.288Z,20.81
2023-04-22T18:50:02.772Z,20.75
2023-04-22T18:52:30.888Z,20.64
2023-04-22T18:54:58.948Z,20.73
2023-04-22T18:57:27.063Z,20.73
2023-04-22T18:59:55.153Z,20.65
2023-04-22T19:02:23.257Z,20.71
2023-04-22T19:04:51.461Z,20.69
2023-04-22T19:07:21.054Z,20.62
2023-04-22T19:09:49.090Z,20.63
2023-04-22T19:12:19.484Z,20.58
2023-04-22T19:14:48.873Z,20.54
2023-04-22T19:17:16.947Z,20.58
2023-04-22T19:19:45.457Z,20.58
2023-04-22T19:22:13.704Z,20.42
2023-04-22T19:24:43.148Z,20.32
2023-04-22T19:27:12.303Z,20.24
2023-04-22T19:29:41.558Z,20.22
2023-04-22T19:32:11.008Z,20.17
2023-04-22T19:34:39.555Z,20.20
2023-04-22T19:37:08.275Z,20.16
2023-04-22T19:39:36.713Z,20.17
2023-04-22T19:42:06.494Z,20.21
2023-04-22T19:44:34.526Z,20.19
2023-04-22T19:47:02.621Z,20.20
2023-04-22T19:49:34.204Z,20.07
2023-04-22T19:52:09.036Z,19.88
2023-04-22T19:54:37.457Z,19.77
2023-04-22T19:57:07.511Z,19.73
2023-04-22T19:59:36.088Z,19.71
2023-04-22T20:02:04.621Z,19.68
2023-04-22T20:04:33.511Z,19.65
2023-04-22T20:07:02.905Z,19.63
2023-04-22T20:09:32.987Z,19.67
2023-04-22T20:12:01.557Z,19.66
2023-04-22T20:14:31.926Z,19.60
2023-04-22T20:17:00.269Z,19.60
2023-04-22T20:19:30.510Z,19.53
2023-04-22T20:21:59.988Z,19.42
2023-04-22T20:24:29.805Z,19.30
2023-04-22T20:26:58.088Z,19.29
2023-04-22T20:29:26.942Z,19.23
2023-04-22T20:31:56.738Z,19.05
2023-04-22T20:34:25.939Z,18.85
2023-04-22T20:36:54.871Z,18.74
2023-04-22T20:39:23.874Z,18.63
2023-04-22T20:41:55.156Z,18.58
2023-04-22T20:44:23.369Z,18.43
2023-04-22T20:46:52.023Z,18.35
2023-04-22T20:49:22.027Z,18.32
2023-04-22T20:51:51.268Z,18.23
2023-04-22T20:54:28.343Z,18.20
2023-04-22T20:56:57.835Z,18.11
2023-04-22T20:59:25.901Z,18.07
2023-04-22T21:01:55.377Z,17.99
2023-04-22T21:04:26.079Z,17.95
2023-04-22T21:06:55.679Z,17.91
2023-04-22T21:09:25.907Z,17.84
2023-04-22T21:11:54.743Z,17.79
2023-04-22T21:14:26.244Z,17.72
2023-04-22T21:16:59.085Z,17.66
2023-04-22T21:19:32.295Z,17.61
2023-04-22T21:22:04.512Z,17.54
2023-04-22T21:24:34.869Z,17.45
2023-04-22T21:27:03.782Z,17.40
2023-04-22T21:29:32.659Z,17.25
2023-04-22T21:32:08.776Z,17.16
2023-04-22T21:34:39.384Z,17.11
2023-04-22T21:37:08.827Z,17.02
2023-04-22T21:39:37.050Z,17.05
2023-04-22T21:42:08.077Z,17.08
2023-04-22T21:44:38.038Z,17.08
2023-04-22T21:47:06.875Z,16.98
2023-04-22T21:49:34.984Z,16.88
2023-04-22T21:52:04.349Z,16.82
2023-04-22T21:54:32.414Z,16.77
2023-04-22T21:57:01.248Z,16.76
2023-04-22T21:59:29.358Z,16.73
2023-04-22T22:01:57.608Z,16.80
2023-04-22T22:04:25.853Z,16.84
2023-04-22T22:06:54.136Z,16.82
2023-04-22T22:09:23.532Z,16.85
2023-04-22T22:11:51.612Z,16.88
2023-04-22T22:14:19.756Z,16.89
2023-04-22T22:16:49.890Z,16.88
2023-04-22T22:19:18.101Z,16.90
2023-04-22T22:21:46.220Z,16.86
2023-04-22T22:24:14.205Z,16.88
2023-04-22T22:26:44.270Z,16.90
2023-04-22T22:29:15.644Z,16.87
2023-04-22T22:31:44.423Z,16.82
2023-04-22T22:34:12.605Z,16.88
2023-04-22T22:36:41.284Z,16.93
2023-04-22T22:39:12.003Z,16.95
2023-04-22T22:41:41.608Z,16.95
2023-04-22T22:44:12.575Z,16.91
2023-04-22T22:46:41.372Z,16.88
2023-04-22T22:49:09.896Z,16.84
2023-04-22T22:51:38.406Z,16.80
2023-04-22T22:54:06.858Z,16.82
2023-04-22T22:56:34.970Z,16.82
2023-04-22T22:59:03.017Z,16.81
2023-04-22T23:01:32.559Z,16.81
2023-04-22T23:04:01.060Z,16.75
2023-04-22T23:06:29.238Z,16.67
2023-04-22T23:08:57.298Z,16.57
2023-04-22T23:11:25.703Z,16.47
2023-04-22T23:13:53.841Z,16.41
2023-04-22T23:16:22.838Z,16.28
2023-04-22T23:18:53.630Z,16.24
2023-04-22T23:21:24.136Z,16.16
2023-04-22T23:23:52.828Z,16.07
2023-04-22T23:26:21.326Z,16.02
2023-04-22T23:28:49.826Z,15.88
2023-04-22T23:31:19.884Z,15.83
2023-04-22T23:33:53.007Z,15.77
2023-04-22T23:36:22.650Z,15.69
2023-04-22T23:38:50.812Z,15.62
2023-04-22T23:41:18.805Z,15.55
2023-04-22T23:43:48.115Z,15.49
2023-04-22T23:46:18.712Z,15.39
2023-04-22T23:48:47.259Z,15.36
2023-04-22T23:51:17.243Z,15.31
2023-04-22T23:53:46.023Z,15.27
2023-04-22T23:56:15.111Z,15.25
2023-04-22T23:58:43.607Z,15.16
